AFR98LR LFMT-LFPG
Flight info
| Callsign | AFR98LR |
|---|---|
| Flight time | 1h 4m |
| Altitude | 32000 |
| Route | NG DCT MOLEN DCT MTL DCT LOGNI DCT MOKIP DCT ARFOZ DCT TINIL |
| Aircraft | A320/M-SDE2E3FGIJ1RWY/HB1 |
Departure
| Time | 2026-05-03 21:30 |
|---|---|
| Airport | Montpellier-Méditerranée Airport (LFMT) |
Arrival
| Time | 2026-05-03 22:35 |
|---|---|
| Airport | Charles de Gaulle International Airport (LFPG) |
| Time | Latitude | Longitude | Altitude | Speed | Heading |
|---|---|---|---|---|---|
| 2026-05-03 21:06 | 43.57919 | 3.96043 | 22 ft | 0 kts | 296° |
| 2026-05-03 21:21 | 43.57918 | 3.96046 | 22 ft | 3 kts | 296° |
| 2026-05-03 21:21 | 43.57905 | 3.96078 | 21 ft | 4 kts | 305° |
| 2026-05-03 21:22 | 43.57888 | 3.96103 | 26 ft | 4 kts | 342° |
| 2026-05-03 21:22 | 43.57873 | 3.96102 | 21 ft | 1 kts | 36° |
| 2026-05-03 21:22 | 43.57870 | 3.96099 | 21 ft | 0 kts | 36° |
| 2026-05-03 21:25 | 43.57904 | 3.96134 | 22 ft | 14 kts | 37° |
| 2026-05-03 21:25 | 43.57978 | 3.96205 | 22 ft | 8 kts | 33° |
| 2026-05-03 21:25 | 43.58021 | 3.96244 | 22 ft | 7 kts | 33° |
| 2026-05-03 21:26 | 43.58059 | 3.96254 | 23 ft | 5 kts | 345° |
| 2026-05-03 21:26 | 43.58101 | 3.96185 | 23 ft | 15 kts | 304° |
| 2026-05-03 21:26 | 43.58166 | 3.96054 | 24 ft | 16 kts | 304° |
| 2026-05-03 21:26 | 43.58225 | 3.95937 | 24 ft | 14 kts | 305° |
| 2026-05-03 21:27 | 43.58277 | 3.95832 | 26 ft | 13 kts | 304° |
| 2026-05-03 21:27 | 43.58323 | 3.95738 | 25 ft | 11 kts | 304° |
| 2026-05-03 21:27 | 43.58365 | 3.95656 | 26 ft | 10 kts | 305° |
| 2026-05-03 21:27 | 43.58402 | 3.95584 | 25 ft | 11 kts | 305° |
| 2026-05-03 21:28 | 43.58470 | 3.95500 | 26 ft | 14 kts | 343° |
| 2026-05-03 21:28 | 43.58486 | 3.95496 | 26 ft | 6 kts | 354° |
| 2026-05-03 21:28 | 43.58544 | 3.95528 | 29 ft | 9 kts | 33° |
| 2026-05-03 21:28 | 43.58595 | 3.95583 | 25 ft | 9 kts | 49° |
| 2026-05-03 21:29 | 43.58576 | 3.95641 | 24 ft | 8 kts | 129° |
| 2026-05-03 21:29 | 43.58570 | 3.95653 | 24 ft | 0 kts | 127° |
| 2026-05-03 21:29 | 43.58412 | 3.95963 | 23 ft | 76 kts | 124° |
| 2026-05-03 21:30 | 43.57993 | 3.96801 | 21 ft | 135 kts | 124° |
| 2026-05-03 21:30 | 43.57393 | 3.97970 | 363 ft | 153 kts | 127° |
| 2026-05-03 21:30 | 43.56754 | 3.99146 | 1085 ft | 155 kts | 123° |
| 2026-05-03 21:30 | 43.56428 | 4.00551 | 1883 ft | 159 kts | 90° |
| 2026-05-03 21:31 | 43.56689 | 4.02057 | 2695 ft | 164 kts | 71° |
| 2026-05-03 21:31 | 43.57288 | 4.03426 | 3406 ft | 177 kts | 55° |
| 2026-05-03 21:31 | 43.58328 | 4.04537 | 3779 ft | 209 kts | 27° |
| 2026-05-03 21:31 | 43.59831 | 4.05174 | 4194 ft | 236 kts | 20° |
| 2026-05-03 21:32 | 43.61465 | 4.05852 | 4687 ft | 260 kts | 20° |
| 2026-05-03 21:32 | 43.63250 | 4.06646 | 5310 ft | 276 kts | 26° |
| 2026-05-03 21:32 | 43.64806 | 4.08166 | 6108 ft | 277 kts | 50° |
| 2026-05-03 21:32 | 43.66131 | 4.10138 | 6932 ft | 283 kts | 51° |
| 2026-05-03 21:33 | 43.67457 | 4.12186 | 7768 ft | 289 kts | 52° |
| 2026-05-03 21:33 | 43.68800 | 4.14284 | 8645 ft | 293 kts | 52° |
| 2026-05-03 21:33 | 43.70157 | 4.16408 | 9472 ft | 298 kts | 52° |
| 2026-05-03 21:33 | 43.71543 | 4.18575 | 10228 ft | 304 kts | 51° |
| 2026-05-03 21:34 | 43.72999 | 4.20851 | 10524 ft | 327 kts | 51° |
| 2026-05-03 21:34 | 43.74553 | 4.23277 | 10866 ft | 345 kts | 51° |
| 2026-05-03 21:34 | 43.76167 | 4.25785 | 11526 ft | 352 kts | 50° |
| 2026-05-03 21:34 | 43.77805 | 4.28322 | 12268 ft | 356 kts | 50° |
| 2026-05-03 21:35 | 43.79468 | 4.30895 | 13021 ft | 360 kts | 50° |
| 2026-05-03 21:35 | 43.81147 | 4.33494 | 13762 ft | 364 kts | 50° |
| 2026-05-03 21:35 | 43.82839 | 4.36121 | 14415 ft | 368 kts | 50° |
| 2026-05-03 21:35 | 43.84610 | 4.38710 | 15038 ft | 373 kts | 43° |
| 2026-05-03 21:36 | 43.86694 | 4.40864 | 15655 ft | 378 kts | 31° |
| 2026-05-03 21:36 | 43.89083 | 4.42450 | 16267 ft | 382 kts | 20° |
| 2026-05-03 21:36 | 43.91581 | 4.43764 | 16894 ft | 386 kts | 20° |
| 2026-05-03 21:36 | 43.94101 | 4.45104 | 17514 ft | 390 kts | 20° |
| 2026-05-03 21:37 | 43.96644 | 4.46468 | 18117 ft | 394 kts | 20° |
| 2026-05-03 21:37 | 43.99206 | 4.47846 | 18671 ft | 398 kts | 20° |
| 2026-05-03 21:37 | 44.01804 | 4.49251 | 19190 ft | 402 kts | 20° |
| 2026-05-03 21:37 | 44.04419 | 4.50666 | 19719 ft | 405 kts | 20° |
| 2026-05-03 21:38 | 44.07053 | 4.52084 | 20251 ft | 409 kts | 20° |
| 2026-05-03 21:38 | 44.09721 | 4.53507 | 20782 ft | 412 kts | 19° |
| 2026-05-03 21:38 | 44.12418 | 4.54937 | 21314 ft | 416 kts | 19° |
| 2026-05-03 21:38 | 44.15129 | 4.56372 | 21845 ft | 419 kts | 19° |
| 2026-05-03 21:39 | 44.17870 | 4.57822 | 22332 ft | 423 kts | 19° |
| 2026-05-03 21:39 | 44.20638 | 4.59289 | 22842 ft | 427 kts | 19° |
| 2026-05-03 21:39 | 44.23391 | 4.60755 | 23340 ft | 431 kts | 19° |
| 2026-05-03 21:39 | 44.26239 | 4.62275 | 23802 ft | 435 kts | 19° |
| 2026-05-03 21:40 | 44.29073 | 4.63791 | 24218 ft | 438 kts | 19° |
| 2026-05-03 21:40 | 44.31921 | 4.65319 | 24633 ft | 440 kts | 19° |
| 2026-05-03 21:40 | 44.34795 | 4.66861 | 25046 ft | 443 kts | 19° |
| 2026-05-03 21:40 | 44.37686 | 4.68409 | 25440 ft | 446 kts | 19° |
| 2026-05-03 21:41 | 44.40549 | 4.69943 | 25828 ft | 448 kts | 19° |
| 2026-05-03 21:41 | 44.43458 | 4.71504 | 26216 ft | 450 kts | 19° |
| 2026-05-03 21:41 | 44.46389 | 4.73075 | 26609 ft | 452 kts | 19° |
| 2026-05-03 21:41 | 44.49338 | 4.74660 | 26980 ft | 454 kts | 19° |
| 2026-05-03 21:42 | 44.52300 | 4.76255 | 27364 ft | 457 kts | 19° |
| 2026-05-03 21:42 | 44.55304 | 4.77694 | 27726 ft | 457 kts | 12° |
| 2026-05-03 21:42 | 44.58421 | 4.78538 | 28082 ft | 457 kts | 5° |
| 2026-05-03 21:42 | 44.61589 | 4.79108 | 28441 ft | 459 kts | 5° |
| 2026-05-03 21:43 | 44.64758 | 4.79676 | 28797 ft | 461 kts | 5° |
| 2026-05-03 21:43 | 44.67956 | 4.80247 | 29141 ft | 463 kts | 5° |
| 2026-05-03 21:43 | 44.71157 | 4.80818 | 29471 ft | 465 kts | 5° |
| 2026-05-03 21:43 | 44.74380 | 4.81393 | 29800 ft | 468 kts | 5° |
| 2026-05-03 21:44 | 44.77618 | 4.81972 | 30123 ft | 470 kts | 5° |
| 2026-05-03 21:44 | 44.80859 | 4.82556 | 30400 ft | 472 kts | 5° |
| 2026-05-03 21:44 | 44.84118 | 4.83148 | 30664 ft | 473 kts | 5° |
| 2026-05-03 21:44 | 44.87402 | 4.83747 | 30924 ft | 475 kts | 5° |
| 2026-05-03 21:45 | 44.90684 | 4.84349 | 31182 ft | 477 kts | 5° |
| 2026-05-03 21:45 | 44.93988 | 4.84956 | 31405 ft | 480 kts | 4° |
| 2026-05-03 21:45 | 44.97295 | 4.85563 | 31701 ft | 480 kts | 4° |
| 2026-05-03 21:45 | 45.00611 | 4.86171 | 31998 ft | 480 kts | 4° |
| 2026-05-03 21:46 | 45.07108 | 4.87370 | 32071 ft | 460 kts | 4° |
| 2026-05-03 21:46 | 45.13419 | 4.88527 | 32066 ft | 455 kts | 4° |
| 2026-05-03 21:47 | 45.19697 | 4.89669 | 32067 ft | 455 kts | 4° |
| 2026-05-03 21:47 | 45.25973 | 4.90824 | 32067 ft | 455 kts | 4° |
| 2026-05-03 21:48 | 45.32249 | 4.91981 | 32062 ft | 455 kts | 4° |
| 2026-05-03 21:48 | 45.38535 | 4.93135 | 32058 ft | 455 kts | 4° |
| 2026-05-03 21:49 | 45.44824 | 4.94298 | 32062 ft | 456 kts | 4° |
| 2026-05-03 21:49 | 45.51061 | 4.95464 | 32064 ft | 455 kts | 4° |
| 2026-05-03 21:50 | 45.57350 | 4.96643 | 32054 ft | 455 kts | 4° |
| 2026-05-03 21:50 | 45.63623 | 4.97817 | 32048 ft | 455 kts | 4° |
| 2026-05-03 21:51 | 45.69901 | 4.98980 | 32045 ft | 455 kts | 4° |
| 2026-05-03 21:51 | 45.76175 | 5.00158 | 32049 ft | 455 kts | 4° |
| 2026-05-03 21:52 | 45.82450 | 5.01351 | 32047 ft | 455 kts | 4° |
| 2026-05-03 21:52 | 45.88722 | 5.02538 | 32057 ft | 455 kts | 4° |
| 2026-05-03 21:53 | 45.95004 | 5.03711 | 32055 ft | 455 kts | 4° |
| 2026-05-03 21:53 | 46.00231 | 5.04690 | 32048 ft | 455 kts | 4° |
| 2026-05-03 21:54 | 46.06509 | 5.05881 | 32047 ft | 455 kts | 4° |
| 2026-05-03 21:54 | 46.12785 | 5.07084 | 32043 ft | 455 kts | 4° |
| 2026-05-03 21:55 | 46.19063 | 5.08284 | 32038 ft | 455 kts | 4° |
| 2026-05-03 21:55 | 46.25334 | 5.09296 | 32032 ft | 451 kts | 356° |
| 2026-05-03 21:56 | 46.31603 | 5.09321 | 32037 ft | 450 kts | 355° |
| 2026-05-03 21:56 | 46.37862 | 5.09329 | 32029 ft | 450 kts | 355° |
| 2026-05-03 21:57 | 46.44127 | 5.09349 | 32027 ft | 450 kts | 355° |
| 2026-05-03 21:57 | 46.50387 | 5.09378 | 32037 ft | 450 kts | 355° |
| 2026-05-03 21:58 | 46.56632 | 5.09410 | 32031 ft | 449 kts | 355° |
| 2026-05-03 21:58 | 46.62883 | 5.09437 | 32024 ft | 449 kts | 355° |
| 2026-05-03 21:59 | 46.69124 | 5.09460 | 32019 ft | 449 kts | 355° |
| 2026-05-03 21:59 | 46.75365 | 5.09485 | 32014 ft | 449 kts | 355° |
| 2026-05-03 22:00 | 46.81569 | 5.09515 | 32012 ft | 449 kts | 355° |
| 2026-05-03 22:00 | 46.87815 | 5.09549 | 32020 ft | 449 kts | 356° |
| 2026-05-03 22:01 | 46.94058 | 5.09578 | 32021 ft | 449 kts | 356° |
| 2026-05-03 22:01 | 47.00347 | 5.09597 | 32019 ft | 449 kts | 356° |
| 2026-05-03 22:02 | 47.06544 | 5.09621 | 32018 ft | 449 kts | 356° |
| 2026-05-03 22:02 | 47.12785 | 5.09648 | 32032 ft | 450 kts | 356° |
| 2026-05-03 22:03 | 47.19041 | 5.09663 | 32030 ft | 448 kts | 356° |
| 2026-05-03 22:03 | 47.25278 | 5.09697 | 32029 ft | 448 kts | 356° |
| 2026-05-03 22:04 | 47.31501 | 5.09736 | 32028 ft | 447 kts | 356° |
| 2026-05-03 22:04 | 47.37720 | 5.09766 | 32029 ft | 446 kts | 356° |
| 2026-05-03 22:05 | 47.43921 | 5.09797 | 32025 ft | 446 kts | 356° |
| 2026-05-03 22:05 | 47.50129 | 5.09818 | 32032 ft | 446 kts | 356° |
| 2026-05-03 22:06 | 47.53208 | 5.09807 | 31800 ft | 439 kts | 353° |
| 2026-05-03 22:06 | 47.56199 | 5.09269 | 31538 ft | 427 kts | 343° |
| 2026-05-03 22:06 | 47.59010 | 5.08026 | 31076 ft | 417 kts | 333° |
| 2026-05-03 22:06 | 47.61567 | 5.06121 | 30592 ft | 408 kts | 323° |
| 2026-05-03 22:07 | 47.63827 | 5.03681 | 30124 ft | 399 kts | 314° |
| 2026-05-03 22:07 | 47.65935 | 5.01026 | 29626 ft | 396 kts | 314° |
| 2026-05-03 22:07 | 47.68030 | 4.98398 | 29171 ft | 392 kts | 314° |
| 2026-05-03 22:07 | 47.70104 | 4.95804 | 28744 ft | 387 kts | 314° |
| 2026-05-03 22:08 | 47.72146 | 4.93249 | 28304 ft | 383 kts | 314° |
| 2026-05-03 22:08 | 47.74176 | 4.90705 | 27871 ft | 379 kts | 314° |
| 2026-05-03 22:08 | 47.76189 | 4.88163 | 27517 ft | 382 kts | 313° |
| 2026-05-03 22:08 | 47.78215 | 4.85589 | 27130 ft | 382 kts | 313° |
| 2026-05-03 22:09 | 47.80228 | 4.83023 | 26746 ft | 381 kts | 313° |
| 2026-05-03 22:09 | 47.82233 | 4.80464 | 26367 ft | 379 kts | 313° |
| 2026-05-03 22:09 | 47.84234 | 4.77916 | 25984 ft | 378 kts | 314° |
| 2026-05-03 22:10 | 47.88215 | 4.72850 | 25234 ft | 375 kts | 314° |
| 2026-05-03 22:10 | 47.90190 | 4.70331 | 24852 ft | 373 kts | 314° |
| 2026-05-03 22:10 | 47.92160 | 4.67817 | 24489 ft | 372 kts | 314° |
| 2026-05-03 22:10 | 47.94120 | 4.65315 | 24114 ft | 370 kts | 314° |
| 2026-05-03 22:11 | 47.96076 | 4.62813 | 23732 ft | 371 kts | 314° |
| 2026-05-03 22:11 | 47.98029 | 4.60308 | 23330 ft | 370 kts | 314° |
| 2026-05-03 22:11 | 47.99981 | 4.57805 | 22947 ft | 369 kts | 314° |
| 2026-05-03 22:11 | 48.01928 | 4.55311 | 22578 ft | 367 kts | 314° |
| 2026-05-03 22:12 | 48.03855 | 4.52839 | 22213 ft | 365 kts | 314° |
| 2026-05-03 22:12 | 48.05777 | 4.50365 | 21840 ft | 363 kts | 314° |
| 2026-05-03 22:12 | 48.07687 | 4.47903 | 21473 ft | 361 kts | 314° |
| 2026-05-03 22:12 | 48.09582 | 4.45460 | 21115 ft | 359 kts | 314° |
| 2026-05-03 22:13 | 48.11473 | 4.43022 | 20757 ft | 357 kts | 314° |
| 2026-05-03 22:13 | 48.13325 | 4.40633 | 20404 ft | 356 kts | 314° |
| 2026-05-03 22:13 | 48.15194 | 4.38223 | 20049 ft | 353 kts | 314° |
| 2026-05-03 22:13 | 48.17070 | 4.35803 | 19691 ft | 350 kts | 315° |
| 2026-05-03 22:14 | 48.18880 | 4.33462 | 19344 ft | 347 kts | 315° |
| 2026-05-03 22:14 | 48.20699 | 4.31100 | 18996 ft | 345 kts | 315° |
| 2026-05-03 22:14 | 48.22529 | 4.28721 | 18647 ft | 343 kts | 315° |
| 2026-05-03 22:14 | 48.24323 | 4.26384 | 18307 ft | 341 kts | 315° |
| 2026-05-03 22:15 | 48.26087 | 4.24028 | 17926 ft | 336 kts | 310° |
| 2026-05-03 22:15 | 48.27577 | 4.21436 | 17597 ft | 331 kts | 305° |
| 2026-05-03 22:15 | 48.29041 | 4.18768 | 17262 ft | 330 kts | 306° |
| 2026-05-03 22:15 | 48.30520 | 4.16081 | 16923 ft | 328 kts | 306° |
| 2026-05-03 22:16 | 48.31966 | 4.13447 | 16598 ft | 327 kts | 305° |
| 2026-05-03 22:16 | 48.33383 | 4.10857 | 16332 ft | 322 kts | 305° |
| 2026-05-03 22:16 | 48.34798 | 4.08272 | 15972 ft | 320 kts | 305° |
| 2026-05-03 22:16 | 48.36206 | 4.05700 | 15670 ft | 317 kts | 305° |
| 2026-05-03 22:17 | 48.37621 | 4.03124 | 15380 ft | 313 kts | 305° |
| 2026-05-03 22:17 | 48.38999 | 4.00613 | 15088 ft | 311 kts | 305° |
| 2026-05-03 22:17 | 48.40353 | 3.98142 | 14809 ft | 309 kts | 305° |
| 2026-05-03 22:17 | 48.41716 | 3.95646 | 14522 ft | 308 kts | 304° |
| 2026-05-03 22:18 | 48.43068 | 3.93157 | 14244 ft | 307 kts | 304° |
| 2026-05-03 22:18 | 48.44416 | 3.90674 | 13962 ft | 306 kts | 304° |
| 2026-05-03 22:18 | 48.45758 | 3.88204 | 13670 ft | 305 kts | 304° |
| 2026-05-03 22:18 | 48.47095 | 3.85736 | 13378 ft | 303 kts | 304° |
| 2026-05-03 22:19 | 48.48426 | 3.83278 | 13097 ft | 302 kts | 304° |
| 2026-05-03 22:19 | 48.49754 | 3.80831 | 12813 ft | 301 kts | 304° |
| 2026-05-03 22:19 | 48.51076 | 3.78393 | 12545 ft | 300 kts | 304° |
| 2026-05-03 22:19 | 48.52395 | 3.75962 | 12271 ft | 298 kts | 304° |
| 2026-05-03 22:20 | 48.53703 | 3.73540 | 11994 ft | 297 kts | 303° |
| 2026-05-03 22:20 | 48.54852 | 3.70980 | 11694 ft | 293 kts | 298° |
| 2026-05-03 22:20 | 48.55961 | 3.68401 | 11384 ft | 292 kts | 298° |
| 2026-05-03 22:20 | 48.57063 | 3.65835 | 11094 ft | 291 kts | 298° |
| 2026-05-03 22:21 | 48.58162 | 3.63277 | 10790 ft | 290 kts | 298° |
| 2026-05-03 22:21 | 48.59252 | 3.60733 | 10495 ft | 288 kts | 298° |
| 2026-05-03 22:21 | 48.60350 | 3.58202 | 10191 ft | 288 kts | 302° |
| 2026-05-03 22:21 | 48.61729 | 3.55993 | 9898 ft | 292 kts | 317° |
| 2026-05-03 22:22 | 48.63452 | 3.54331 | 9673 ft | 295 kts | 327° |
| 2026-05-03 22:22 | 48.65232 | 3.52800 | 9465 ft | 294 kts | 326° |
| 2026-05-03 22:22 | 48.67004 | 3.51266 | 9248 ft | 293 kts | 326° |
| 2026-05-03 22:22 | 48.68769 | 3.49731 | 9034 ft | 292 kts | 326° |
| 2026-05-03 22:23 | 48.70528 | 3.48203 | 8822 ft | 292 kts | 326° |
| 2026-05-03 22:23 | 48.72286 | 3.46675 | 8607 ft | 290 kts | 326° |
| 2026-05-03 22:23 | 48.74032 | 3.45151 | 8395 ft | 289 kts | 326° |
| 2026-05-03 22:23 | 48.75769 | 3.43629 | 8183 ft | 287 kts | 324° |
| 2026-05-03 22:24 | 48.77318 | 3.41772 | 8022 ft | 283 kts | 314° |
| 2026-05-03 22:24 | 48.78741 | 3.39741 | 7966 ft | 282 kts | 313° |
| 2026-05-03 22:24 | 48.80139 | 3.37712 | 7970 ft | 282 kts | 312° |
| 2026-05-03 22:24 | 48.81560 | 3.35645 | 7792 ft | 285 kts | 312° |
| 2026-05-03 22:25 | 48.82998 | 3.33551 | 7497 ft | 281 kts | 312° |
| 2026-05-03 22:25 | 48.84401 | 3.31508 | 7214 ft | 279 kts | 312° |
| 2026-05-03 22:25 | 48.85781 | 3.29498 | 6875 ft | 277 kts | 312° |
| 2026-05-03 22:25 | 48.87168 | 3.27475 | 6532 ft | 276 kts | 312° |
| 2026-05-03 22:26 | 48.88545 | 3.25466 | 6234 ft | 274 kts | 312° |
| 2026-05-03 22:26 | 48.89917 | 3.23463 | 5932 ft | 273 kts | 312° |
| 2026-05-03 22:26 | 48.91286 | 3.21463 | 5627 ft | 272 kts | 312° |
| 2026-05-03 22:26 | 48.92542 | 3.19333 | 5369 ft | 269 kts | 304° |
| 2026-05-03 22:27 | 48.93656 | 3.17061 | 5130 ft | 267 kts | 302° |
| 2026-05-03 22:27 | 48.94744 | 3.14795 | 4980 ft | 260 kts | 302° |
| 2026-05-03 22:27 | 48.95788 | 3.12624 | 4830 ft | 249 kts | 302° |
| 2026-05-03 22:27 | 48.96802 | 3.10523 | 4676 ft | 245 kts | 302° |
| 2026-05-03 22:28 | 48.97808 | 3.08433 | 4551 ft | 244 kts | 302° |
| 2026-05-03 22:28 | 48.98809 | 3.06351 | 4454 ft | 243 kts | 302° |
| 2026-05-03 22:28 | 48.99797 | 3.04268 | 4351 ft | 242 kts | 302° |
| 2026-05-03 22:28 | 49.00773 | 3.02186 | 4249 ft | 241 kts | 299° |
| 2026-05-03 22:29 | 49.01387 | 2.99861 | 4143 ft | 235 kts | 276° |
| 2026-05-03 22:29 | 49.01395 | 2.97426 | 4040 ft | 225 kts | 263° |
| 2026-05-03 22:29 | 49.01276 | 2.95068 | 4007 ft | 223 kts | 263° |
| 2026-05-03 22:29 | 49.01160 | 2.92741 | 4004 ft | 215 kts | 263° |
| 2026-05-03 22:30 | 49.01049 | 2.90510 | 4005 ft | 206 kts | 263° |
| 2026-05-03 22:30 | 49.00940 | 2.88354 | 3903 ft | 203 kts | 263° |
| 2026-05-03 22:30 | 49.00832 | 2.86217 | 3676 ft | 201 kts | 263° |
| 2026-05-03 22:30 | 49.00724 | 2.84093 | 3420 ft | 201 kts | 263° |
| 2026-05-03 22:31 | 49.00616 | 2.81975 | 3159 ft | 200 kts | 263° |
| 2026-05-03 22:31 | 49.00509 | 2.79877 | 2888 ft | 197 kts | 263° |
| 2026-05-03 22:31 | 49.00405 | 2.77846 | 2668 ft | 190 kts | 263° |
| 2026-05-03 22:31 | 49.00303 | 2.75864 | 2385 ft | 185 kts | 263° |
| 2026-05-03 22:32 | 49.00207 | 2.73994 | 2137 ft | 173 kts | 263° |
| 2026-05-03 22:32 | 49.00113 | 2.72179 | 1910 ft | 167 kts | 263° |
| 2026-05-03 22:32 | 49.00028 | 2.70524 | 1711 ft | 149 kts | 263° |
| 2026-05-03 22:32 | 48.99949 | 2.69017 | 1505 ft | 138 kts | 263° |
| 2026-05-03 22:33 | 48.99874 | 2.67577 | 1323 ft | 135 kts | 263° |
| 2026-05-03 22:33 | 48.99799 | 2.66154 | 1124 ft | 135 kts | 263° |
| 2026-05-03 22:33 | 48.99721 | 2.64719 | 952 ft | 136 kts | 263° |
| 2026-05-03 22:33 | 48.99644 | 2.63284 | 766 ft | 137 kts | 263° |
| 2026-05-03 22:34 | 48.99571 | 2.61837 | 580 ft | 137 kts | 264° |
| 2026-05-03 22:34 | 48.99501 | 2.60396 | 426 ft | 136 kts | 262° |
| 2026-05-03 22:34 | 48.99437 | 2.58984 | 354 ft | 126 kts | 263° |
| 2026-05-03 22:34 | 48.99364 | 2.57889 | 355 ft | 80 kts | 263° |
| 2026-05-03 22:35 | 48.99350 | 2.57460 | 351 ft | 29 kts | 284° |
| 2026-05-03 22:35 | 48.99406 | 2.57168 | 356 ft | 28 kts | 285° |
| 2026-05-03 22:35 | 48.99448 | 2.56946 | 356 ft | 12 kts | 286° |
| 2026-05-03 22:35 | 48.99468 | 2.56830 | 354 ft | 11 kts | 282° |
| 2026-05-03 22:36 | 48.99476 | 2.56728 | 356 ft | 9 kts | 274° |
| 2026-05-03 22:36 | 48.99499 | 2.56653 | 357 ft | 7 kts | 321° |
| 2026-05-03 22:36 | 48.99569 | 2.56628 | 354 ft | 18 kts | 352° |
| 2026-05-03 22:36 | 48.99705 | 2.56613 | 354 ft | 20 kts | 354° |
| 2026-05-03 22:37 | 48.99812 | 2.56558 | 357 ft | 15 kts | 301° |
| 2026-05-03 22:37 | 48.99820 | 2.56402 | 354 ft | 16 kts | 266° |
| 2026-05-03 22:37 | 48.99810 | 2.56226 | 354 ft | 18 kts | 264° |
| 2026-05-03 22:37 | 48.99799 | 2.56028 | 361 ft | 20 kts | 265° |
| 2026-05-03 22:38 | 48.99819 | 2.55815 | 359 ft | 22 kts | 286° |
| 2026-05-03 22:38 | 48.99879 | 2.55608 | 358 ft | 20 kts | 312° |
| 2026-05-03 22:38 | 49.00010 | 2.55519 | 362 ft | 21 kts | 343° |
| 2026-05-03 22:38 | 49.00156 | 2.55455 | 354 ft | 22 kts | 344° |
| 2026-05-03 22:39 | 49.00312 | 2.55387 | 359 ft | 24 kts | 344° |
| 2026-05-03 22:39 | 49.00478 | 2.55314 | 356 ft | 25 kts | 345° |
| 2026-05-03 22:39 | 49.00636 | 2.55249 | 361 ft | 21 kts | 347° |
| 2026-05-03 22:39 | 49.00709 | 2.55326 | 357 ft | 13 kts | 60° |
| 2026-05-03 22:40 | 49.00728 | 2.55459 | 354 ft | 16 kts | 85° |
| 2026-05-03 22:40 | 49.00745 | 2.55683 | 354 ft | 26 kts | 83° |
| 2026-05-03 22:40 | 49.00761 | 2.55869 | 354 ft | 27 kts | 82° |
| 2026-05-03 22:40 | 49.00798 | 2.56265 | 356 ft | 29 kts | 82° |
| 2026-05-03 22:41 | 49.00819 | 2.56472 | 357 ft | 30 kts | 82° |
| 2026-05-03 22:41 | 49.00837 | 2.56789 | 354 ft | 26 kts | 86° |
| 2026-05-03 22:41 | 49.00851 | 2.57063 | 357 ft | 27 kts | 85° |
| 2026-05-03 22:41 | 49.00867 | 2.57350 | 360 ft | 23 kts | 85° |
| 2026-05-03 22:42 | 49.00874 | 2.57478 | 356 ft | 11 kts | 85° |
| 2026-05-03 22:42 | 49.00844 | 2.57562 | 358 ft | 9 kts | 153° |
| 2026-05-03 22:42 | 49.00791 | 2.57607 | 359 ft | 8 kts | 143° |
| 2026-05-03 22:42 | 49.00754 | 2.57643 | 357 ft | 4 kts | 174° |
| 2026-05-03 22:43 | 49.00724 | 2.57609 | 357 ft | 9 kts | 225° |
| 2026-05-03 22:43 | 49.00697 | 2.57568 | 354 ft | 3 kts | 226° |
| 2026-05-03 22:43 | 49.00693 | 2.57561 | 361 ft | 0 kts | 226° |